Time;durP1;ratioP1;P1;durP2;ratioP2;P2;SDS_P1;SDS_P2;PMS_P1;PMS_P2;Temp;Humidity;BMP_temperature;BMP_pressure;BME280_temperature;BME280_humidity;BME280_pressure;Samples;Min_cycle;Max_cycle;Signal;HPM_P1;HPM_P2
2023/03/17 00:02:17;;;;;;;7.13;3.40;;;;;;;;;;5026845;28;20439;-53
2023/03/17 00:04:44;;;;;;;5.70;3.37;;;;;;;;;;5050899;28;20573;-54
2023/03/17 00:07:10;;;;;;;4.70;3.23;;;;;;;;;;5038736;28;20435;-56
2023/03/17 00:09:36;;;;;;;6.53;3.67;;;;;;;;;;5007430;28;20854;-55
2023/03/17 00:12:02;;;;;;;7.30;3.23;;;;;;;;;;5035815;28;20445;-55
2023/03/17 00:14:28;;;;;;;4.97;3.47;;;;;;;;;;5008846;28;20446;-52
2023/03/17 00:16:54;;;;;;;7.27;3.50;;;;;;;;;;5039929;28;20839;-53
2023/03/17 00:19:26;;;;;;;7.03;3.07;;;;;;;;;;5020719;28;20418;-56
2023/03/17 00:21:52;;;;;;;4.43;3.73;;;;;;;;;;5035900;28;20435;-54
2023/03/17 00:24:18;;;;;;;5.60;3.73;;;;;;;;;;5014058;28;21304;-55
2023/03/17 00:26:45;;;;;;;7.30;3.73;;;;;;;;;;5030712;28;20534;-54
2023/03/17 00:29:20;;;;;;;5.60;3.30;;;;;;;;;;5028917;28;20658;-55
2023/03/17 00:31:50;;;;;;;5.20;3.43;;;;;;;;;;5028877;28;21015;-55
2023/03/17 00:34:17;;;;;;;4.30;3.50;;;;;;;;;;5021089;28;20529;-54
2023/03/17 00:36:43;;;;;;;5.57;3.30;;;;;;;;;;5024032;28;21223;-54
2023/03/17 00:39:13;;;;;;;5.50;3.63;;;;;;;;;;5031038;28;20426;-54
2023/03/17 00:41:38;;;;;;;4.83;3.50;;;;;;;;;;5031076;28;20459;-55
2023/03/17 00:44:04;;;;;;;6.70;4.20;;;;;;;;;;5023764;28;20994;-55
2023/03/17 00:46:36;;;;;;;5.40;4.60;;;;;;;;;;5021570;28;20188;-53
2023/03/17 00:49:04;;;;;;;5.33;3.33;;;;;;;;;;5030494;28;20439;-55
2023/03/17 00:51:30;;;;;;;8.23;5.10;;;;;;;;;;5017706;28;20484;-53
2023/03/17 00:53:56;;;;;;;3.90;3.23;;;;;;;;;;5027539;28;20435;-55
2023/03/17 00:56:22;;;;;;;6.80;4.50;;;;;;;;;;5017528;28;20506;-54
2023/03/17 00:58:56;;;;;;;5.70;3.77;;;;;;;;;;5040093;28;21005;-54
2023/03/17 01:01:25;;;;;;;8.30;4.00;;;;;;;;;;4989449;28;21365;-52
2023/03/17 01:03:51;;;;;;;5.57;3.87;;;;;;;;;;5035931;28;21252;-54
2023/03/17 01:06:17;;;;;;;5.93;3.53;;;;;;;;;;5009360;28;20517;-53
2023/03/17 01:08:43;;;;;;;6.30;4.20;;;;;;;;;;5027127;28;20572;-54
2023/03/17 01:11:13;;;;;;;5.07;4.10;;;;;;;;;;5013799;28;20449;-54
2023/03/17 01:13:39;;;;;;;5.07;4.00;;;;;;;;;;5035673;28;20484;-54
2023/03/17 01:16:08;;;;;;;6.40;3.90;;;;;;;;;;5001941;28;20478;-54
2023/03/17 01:18:34;;;;;;;4.73;3.40;;;;;;;;;;5036199;28;20431;-55
2023/03/17 01:21:00;;;;;;;6.20;3.83;;;;;;;;;;5008934;28;20468;-54
2023/03/17 01:23:26;;;;;;;4.07;3.40;;;;;;;;;;5037100;28;20970;-54
2023/03/17 01:25:53;;;;;;;6.00;3.80;;;;;;;;;;5035396;28;21029;-54
2023/03/17 01:28:19;;;;;;;5.73;4.17;;;;;;;;;;5039608;28;20596;-54
2023/03/17 01:30:45;;;;;;;6.63;4.33;;;;;;;;;;5010436;28;20453;-54
2023/03/17 01:33:13;;;;;;;4.73;3.53;;;;;;;;;;5038896;28;20432;-54
2023/03/17 01:35:41;;;;;;;5.70;3.43;;;;;;;;;;5029753;28;20574;-54
2023/03/17 01:38:07;;;;;;;4.70;4.13;;;;;;;;;;5001380;28;20491;-55
2023/03/17 01:40:37;;;;;;;7.60;4.73;;;;;;;;;;5039789;28;20434;-55
2023/03/17 01:43:16;;;;;;;4.30;3.90;;;;;;;;;;5019725;28;20934;-54
2023/03/17 01:46:01;;;;;;;6.67;3.70;;;;;;;;;;5036201;28;20430;-54
2023/03/17 01:48:27;;;;;;;5.67;4.47;;;;;;;;;;5038883;28;20868;-53
2023/03/17 01:50:53;;;;;;;7.33;3.67;;;;;;;;;;5031545;28;21339;-54
2023/03/17 01:53:20;;;;;;;3.93;3.40;;;;;;;;;;5025665;28;20477;-51
2023/03/17 01:55:46;;;;;;;6.23;4.70;;;;;;;;;;5037390;28;20815;-54
2023/03/17 01:58:12;;;;;;;5.87;4.60;;;;;;;;;;5032053;28;20431;-54
2023/03/17 02:00:39;;;;;;;5.93;3.70;;;;;;;;;;5034864;28;20434;-55
2023/03/17 02:03:06;;;;;;;4.93;4.43;;;;;;;;;;5029099;28;21004;-54
2023/03/17 02:05:32;;;;;;;5.13;4.40;;;;;;;;;;5034003;28;20511;-53
2023/03/17 02:07:59;;;;;;;5.10;4.50;;;;;;;;;;5020413;28;20808;-54
2023/03/17 02:10:26;;;;;;;5.80;4.37;;;;;;;;;;5041524;28;20441;-53
2023/03/17 02:12:53;;;;;;;5.80;4.20;;;;;;;;;;5039516;28;20825;-54
2023/03/17 02:15:19;;;;;;;6.70;4.60;;;;;;;;;;5029541;28;20489;-54
2023/03/17 02:17:45;;;;;;;7.57;5.43;;;;;;;;;;5040844;28;20545;-53
2023/03/17 02:20:17;;;;;;;4.53;3.40;;;;;;;;;;5043885;28;20475;-53
2023/03/17 02:22:51;;;;;;;6.43;3.50;;;;;;;;;;5016606;28;20956;-53
2023/03/17 02:25:18;;;;;;;4.97;3.80;;;;;;;;;;5044117;28;20474;-56
2023/03/17 02:27:45;;;;;;;4.53;3.93;;;;;;;;;;5012930;28;20508;-53
2023/03/17 02:30:12;;;;;;;4.87;3.53;;;;;;;;;;5056862;28;20439;-51
2023/03/17 02:32:38;;;;;;;7.07;5.83;;;;;;;;;;5037103;28;20426;-55
2023/03/17 02:35:05;;;;;;;8.17;4.40;;;;;;;;;;5045536;28;20445;-55
2023/03/17 02:37:32;;;;;;;5.93;4.13;;;;;;;;;;5012491;28;20508;-56
2023/03/17 02:39:59;;;;;;;6.80;4.57;;;;;;;;;;5047080;28;21338;-53
2023/03/17 02:42:25;;;;;;;4.00;3.60;;;;;;;;;;5038338;28;20496;-54
2023/03/17 02:44:52;;;;;;;5.20;3.80;;;;;;;;;;5044111;28;20439;-55
2023/03/17 02:47:18;;;;;;;4.93;3.60;;;;;;;;;;5041033;28;21443;-55
2023/03/17 02:49:44;;;;;;;5.53;3.70;;;;;;;;;;5048482;28;20473;-55
2023/03/17 02:52:10;;;;;;;5.13;4.60;;;;;;;;;;5012928;28;21252;-55
2023/03/17 02:54:36;;;;;;;5.20;3.40;;;;;;;;;;5039241;28;20442;-55
2023/03/17 02:57:02;;;;;;;4.93;3.30;;;;;;;;;;5039010;28;20466;-54
2023/03/17 02:59:28;;;;;;;3.93;3.30;;;;;;;;;;5034286;28;20430;-55
2023/03/17 03:01:55;;;;;;;3.80;3.20;;;;;;;;;;5037451;28;20422;-54
2023/03/17 03:04:21;;;;;;;4.60;3.37;;;;;;;;;;5036151;28;21323;-54
2023/03/17 03:06:59;;;;;;;6.60;4.20;;;;;;;;;;5024636;28;20424;-55
2023/03/17 03:09:26;;;;;;;7.70;3.50;;;;;;;;;;5032801;28;21462;-54
2023/03/17 03:11:52;;;;;;;5.70;4.17;;;;;;;;;;5033797;28;20446;-55
2023/03/17 03:14:18;;;;;;;3.67;3.27;;;;;;;;;;5043470;28;20426;-54
2023/03/17 03:16:43;;;;;;;3.97;2.97;;;;;;;;;;5033729;28;20481;-55
2023/03/17 03:19:09;;;;;;;4.00;2.53;;;;;;;;;;5039246;28;20470;-54
2023/03/17 03:21:36;;;;;;;6.77;2.77;;;;;;;;;;5038123;28;20432;-54
2023/03/17 03:24:02;;;;;;;3.13;2.83;;;;;;;;;;5038703;28;20434;-55
2023/03/17 03:26:29;;;;;;;4.33;3.87;;;;;;;;;;5031222;28;20755;-54
2023/03/17 03:28:57;;;;;;;3.87;2.70;;;;;;;;;;5019573;28;20990;-54
2023/03/17 03:31:23;;;;;;;6.20;3.20;;;;;;;;;;5043580;28;20440;-54
2023/03/17 03:33:49;;;;;;;6.40;3.67;;;;;;;;;;5039443;28;20434;-54
2023/03/17 03:36:15;;;;;;;3.23;2.90;;;;;;;;;;5039403;28;20893;-54
2023/03/17 03:38:41;;;;;;;5.60;3.00;;;;;;;;;;5014877;28;20449;-52
2023/03/17 03:41:07;;;;;;;3.07;2.77;;;;;;;;;;5045032;28;20472;-55
2023/03/17 03:43:34;;;;;;;2.87;2.50;;;;;;;;;;5006299;28;20442;-54
2023/03/17 03:46:00;;;;;;;2.70;2.37;;;;;;;;;;5041177;28;20426;-55
2023/03/17 03:48:26;;;;;;;5.20;3.13;;;;;;;;;;5011423;28;20511;-53
2023/03/17 03:50:58;;;;;;;3.50;2.73;;;;;;;;;;5041814;28;20431;-57
2023/03/17 03:53:25;;;;;;;2.53;2.30;;;;;;;;;;5038409;28;20815;-54
2023/03/17 03:55:51;;;;;;;4.03;3.33;;;;;;;;;;5041720;28;20490;-54
2023/03/17 03:58:17;;;;;;;5.13;3.10;;;;;;;;;;5010392;28;20500;-55
2023/03/17 04:00:43;;;;;;;3.40;2.43;;;;;;;;;;5042524;28;20443;-54
2023/03/17 04:03:09;;;;;;;3.30;3.00;;;;;;;;;;5040962;28;20550;-54
2023/03/17 04:05:35;;;;;;;6.70;3.63;;;;;;;;;;5044222;28;20802;-54
2023/03/17 04:08:01;;;;;;;6.30;3.40;;;;;;;;;;5042436;28;20435;-55
2023/03/17 04:10:27;;;;;;;3.33;2.90;;;;;;;;;;5043075;28;20438;-55
2023/03/17 04:12:53;;;;;;;2.93;2.50;;;;;;;;;;5009233;28;20196;-54
2023/03/17 04:15:19;;;;;;;7.40;2.43;;;;;;;;;;5035090;28;20562;-55
2023/03/17 04:17:45;;;;;;;4.30;2.60;;;;;;;;;;5007037;28;20522;-55
2023/03/17 04:20:12;;;;;;;4.47;2.17;;;;;;;;;;5038871;28;20446;-54
2023/03/17 04:22:37;;;;;;;3.43;2.33;;;;;;;;;;5030147;28;20538;-54
2023/03/17 04:25:04;;;;;;;3.60;3.20;;;;;;;;;;5035106;28;20460;-53
2023/03/17 04:27:31;;;;;;;4.50;3.27;;;;;;;;;;5031469;28;21025;-56
2023/03/17 04:29:57;;;;;;;6.10;3.10;;;;;;;;;;5035132;28;20439;-53
2023/03/17 04:32:23;;;;;;;3.73;2.83;;;;;;;;;;5009948;28;21465;-54
2023/03/17 04:34:49;;;;;;;4.37;2.30;;;;;;;;;;5039986;28;20511;-55
2023/03/17 04:37:15;;;;;;;3.33;2.23;;;;;;;;;;5012015;28;20557;-54
2023/03/17 04:39:41;;;;;;;5.40;3.03;;;;;;;;;;5036971;28;20435;-55
2023/03/17 04:42:07;;;;;;;5.47;2.70;;;;;;;;;;5026325;28;20456;-54
2023/03/17 04:44:33;;;;;;;3.83;2.90;;;;;;;;;;5036280;28;20610;-54
2023/03/17 04:47:01;;;;;;;3.70;2.47;;;;;;;;;;5015692;28;20446;-55
2023/03/17 04:49:28;;;;;;;4.43;3.10;;;;;;;;;;5017570;28;20513;-55
2023/03/17 04:51:54;;;;;;;3.23;1.90;;;;;;;;;;5045034;28;20942;-56
2023/03/17 04:54:20;;;;;;;5.30;2.50;;;;;;;;;;5012637;28;20442;-55
2023/03/17 04:56:46;;;;;;;5.83;3.60;;;;;;;;;;5028442;28;20517;-55
2023/03/17 04:59:12;;;;;;;8.33;2.57;;;;;;;;;;5033536;28;20461;-55
2023/03/17 05:01:38;;;;;;;3.53;2.70;;;;;;;;;;5030747;28;21018;-55
2023/03/17 05:04:05;;;;;;;3.00;2.30;;;;;;;;;;5009290;28;20960;-55
2023/03/17 05:06:31;;;;;;;10.60;2.43;;;;;;;;;;5031132;28;20474;-55
2023/03/17 05:08:57;;;;;;;6.53;2.43;;;;;;;;;;5035469;28;20442;-53
2023/03/17 05:11:23;;;;;;;10.50;3.30;;;;;;;;;;5034380;28;20489;-53
2023/03/17 05:13:49;;;;;;;3.90;2.17;;;;;;;;;;5039444;28;20472;-55
2023/03/17 05:16:15;;;;;;;3.23;2.67;;;;;;;;;;5037929;28;20471;-55
2023/03/17 05:18:42;;;;;;;3.33;2.50;;;;;;;;;;4991805;28;20845;-53
2023/03/17 05:21:08;;;;;;;3.40;2.00;;;;;;;;;;5036799;28;20476;-53
2023/03/17 05:23:34;;;;;;;5.40;2.00;;;;;;;;;;5030584;28;21008;-54
2023/03/17 05:26:00;;;;;;;6.43;2.67;;;;;;;;;;5036565;28;20872;-55
2023/03/17 05:28:26;;;;;;;3.80;2.67;;;;;;;;;;5006322;28;20509;-55
2023/03/17 05:30:52;;;;;;;4.03;2.60;;;;;;;;;;5035498;28;20453;-54
2023/03/17 05:33:19;;;;;;;3.43;2.67;;;;;;;;;;5036069;28;20440;-55
2023/03/17 05:35:45;;;;;;;3.93;2.03;;;;;;;;;;5036239;28;20471;-53
2023/03/17 05:38:11;;;;;;;6.40;2.60;;;;;;;;;;5005458;28;20693;-55
2023/03/17 05:40:37;;;;;;;3.37;2.53;;;;;;;;;;5039879;28;20474;-54
2023/03/17 05:43:03;;;;;;;2.00;1.73;;;;;;;;;;5010027;28;20495;-53
2023/03/17 05:45:29;;;;;;;3.07;2.03;;;;;;;;;;5022396;28;20938;-55
2023/03/17 05:47:57;;;;;;;3.67;3.00;;;;;;;;;;5005895;28;20795;-55
2023/03/17 05:50:23;;;;;;;3.00;2.43;;;;;;;;;;5018743;28;20509;-53
2023/03/17 05:52:51;;;;;;;4.30;2.50;;;;;;;;;;5037854;28;20534;-53
2023/03/17 05:55:17;;;;;;;3.50;2.33;;;;;;;;;;5029247;28;20450;-55
2023/03/17 05:57:42;;;;;;;3.80;2.57;;;;;;;;;;5039284;28;20451;-53
2023/03/17 06:00:09;;;;;;;2.70;2.50;;;;;;;;;;5023167;28;20527;-54
2023/03/17 06:02:35;;;;;;;4.07;2.00;;;;;;;;;;5032301;28;20443;-55
2023/03/17 06:05:01;;;;;;;3.90;2.13;;;;;;;;;;4988770;28;20842;-54
2023/03/17 06:07:27;;;;;;;3.50;3.00;;;;;;;;;;5027459;28;20442;-58
2023/03/17 06:09:53;;;;;;;3.87;2.83;;;;;;;;;;5011455;28;20462;-54
2023/03/17 06:12:20;;;;;;;2.93;2.57;;;;;;;;;;5022633;28;20473;-54
2023/03/17 06:14:46;;;;;;;6.27;3.20;;;;;;;;;;5018984;28;20494;-54
2023/03/17 06:17:13;;;;;;;4.10;2.27;;;;;;;;;;5008428;28;20563;-57
2023/03/17 06:19:39;;;;;;;3.93;3.00;;;;;;;;;;5015593;28;21288;-53
2023/03/17 06:22:19;;;;;;;6.13;3.30;;;;;;;;;;5017410;28;20442;-55
2023/03/17 06:24:47;;;;;;;4.50;2.83;;;;;;;;;;5010149;28;20484;-55
2023/03/17 06:27:13;;;;;;;5.10;3.83;;;;;;;;;;5027907;28;20462;-53
2023/03/17 06:29:39;;;;;;;7.43;3.23;;;;;;;;;;5034815;28;20427;-55
2023/03/17 06:32:05;;;;;;;6.80;3.47;;;;;;;;;;5045698;28;20442;-53
2023/03/17 06:34:31;;;;;;;4.53;3.70;;;;;;;;;;5036170;28;20419;-53
2023/03/17 06:36:57;;;;;;;5.73;3.70;;;;;;;;;;5039517;28;20831;-54
2023/03/17 06:39:23;;;;;;;4.20;3.33;;;;;;;;;;5017051;28;20435;-55
2023/03/17 06:41:50;;;;;;;5.20;3.97;;;;;;;;;;5036699;28;20533;-55
2023/03/17 06:44:16;;;;;;;4.37;3.97;;;;;;;;;;5011409;28;20453;-54
2023/03/17 06:46:42;;;;;;;7.27;4.73;;;;;;;;;;5036544;28;20513;-54
2023/03/17 06:49:12;;;;;;;5.20;3.27;;;;;;;;;;5016304;28;20499;-54
2023/03/17 06:51:38;;;;;;;8.27;4.30;;;;;;;;;;5063906;28;20443;-54
2023/03/17 06:54:04;;;;;;;5.07;3.50;;;;;;;;;;5038387;28;20839;-56
2023/03/17 06:56:30;;;;;;;10.17;5.90;;;;;;;;;;5036376;28;20489;-53
2023/03/17 06:58:56;;;;;;;10.90;7.90;;;;;;;;;;5006815;28;20974;-52
2023/03/17 07:01:22;;;;;;;14.87;9.97;;;;;;;;;;5043363;28;20446;-54
2023/03/17 07:03:48;;;;;;;17.23;10.60;;;;;;;;;;5038336;28;20415;-54
2023/03/17 07:06:14;;;;;;;11.27;9.30;;;;;;;;;;5039476;28;20787;-54
2023/03/17 07:08:40;;;;;;;12.10;8.27;;;;;;;;;;5015408;28;20456;-54
2023/03/17 07:11:06;;;;;;;15.53;6.80;;;;;;;;;;5040663;28;20418;-55
2023/03/17 07:13:36;;;;;;;7.70;6.30;;;;;;;;;;5013960;28;20559;-52
2023/03/17 07:16:02;;;;;;;9.90;7.20;;;;;;;;;;5042822;28;20577;-53
2023/03/17 07:18:30;;;;;;;9.00;7.07;;;;;;;;;;5020220;28;20565;-54
2023/03/17 07:20:57;;;;;;;8.63;5.57;;;;;;;;;;5043041;28;20950;-55
2023/03/17 07:23:23;;;;;;;6.10;3.90;;;;;;;;;;5031569;28;20466;-53
2023/03/17 07:25:49;;;;;;;7.50;4.53;;;;;;;;;;5045798;28;20471;-56
2023/03/17 07:28:18;;;;;;;5.60;4.17;;;;;;;;;;5021452;28;20424;-53
2023/03/17 07:30:45;;;;;;;7.07;4.17;;;;;;;;;;5025451;28;20442;-54
2023/03/17 07:33:16;;;;;;;4.60;3.90;;;;;;;;;;5041636;28;20426;-53
2023/03/17 07:35:42;;;;;;;7.23;5.03;;;;;;;;;;5055780;28;21349;-53
2023/03/17 07:38:08;;;;;;;4.70;3.60;;;;;;;;;;5028999;28;20469;-54
2023/03/17 07:40:34;;;;;;;4.77;3.23;;;;;;;;;;5025448;28;20499;-53
2023/03/17 07:43:01;;;;;;;5.53;4.27;;;;;;;;;;5032133;28;20429;-53
2023/03/17 07:45:27;;;;;;;7.63;4.40;;;;;;;;;;5020263;28;20446;-54
2023/03/17 07:47:53;;;;;;;8.10;5.47;;;;;;;;;;5038060;28;21045;-53
2023/03/17 07:50:20;;;;;;;6.80;4.43;;;;;;;;;;5015240;28;20458;-55
2023/03/17 07:52:46;;;;;;;8.10;4.27;;;;;;;;;;5051686;28;20473;-54
2023/03/17 07:55:11;;;;;;;11.20;5.70;;;;;;;;;;5039539;28;21234;-52
2023/03/17 07:57:38;;;;;;;8.10;5.07;;;;;;;;;;5039833;28;20541;-54
2023/03/17 08:00:09;;;;;;;12.93;4.47;;;;;;;;;;5003833;28;20191;-54
2023/03/17 08:02:35;;;;;;;12.53;7.23;;;;;;;;;;5039246;28;20435;-53
2023/03/17 08:05:02;;;;;;;6.97;4.60;;;;;;;;;;5035267;28;20528;-54
2023/03/17 08:07:29;;;;;;;13.07;3.27;;;;;;;;;;5054679;28;20434;-56
2023/03/17 08:09:56;;;;;;;6.07;3.83;;;;;;;;;;5012398;28;20435;-56
2023/03/17 08:12:22;;;;;;;5.63;3.40;;;;;;;;;;5037999;28;20442;-54
2023/03/17 08:14:49;;;;;;;7.47;3.70;;;;;;;;;;5034325;28;20446;-54
2023/03/17 08:17:15;;;;;;;5.30;3.00;;;;;;;;;;5038539;28;20988;-55
2023/03/17 08:19:41;;;;;;;9.60;2.83;;;;;;;;;;5003722;28;20473;-54
2023/03/17 08:22:07;;;;;;;5.10;3.00;;;;;;;;;;5015769;28;20462;-54
2023/03/17 08:24:34;;;;;;;3.50;2.70;;;;;;;;;;5039699;28;20446;-52
2023/03/17 08:27:00;;;;;;;5.23;3.00;;;;;;;;;;5028648;28;20207;-55
2023/03/17 08:29:27;;;;;;;3.70;2.70;;;;;;;;;;5036713;28;20443;-55
2023/03/17 08:31:53;;;;;;;5.50;2.80;;;;;;;;;;5005468;28;20878;-56
2023/03/17 08:34:19;;;;;;;4.53;3.03;;;;;;;;;;5029323;28;20429;-54
2023/03/17 08:36:45;;;;;;;3.80;3.00;;;;;;;;;;5012183;28;20506;-55
2023/03/17 08:39:11;;;;;;;4.97;3.10;;;;;;;;;;5039351;28;20291;-54
2023/03/17 08:41:37;;;;;;;6.53;2.63;;;;;;;;;;5036071;28;20466;-54
2023/03/17 08:44:04;;;;;;;5.60;3.37;;;;;;;;;;5037452;28;20788;-55
2023/03/17 08:46:30;;;;;;;4.83;2.70;;;;;;;;;;5021669;28;20941;-54
2023/03/17 08:48:56;;;;;;;5.10;2.80;;;;;;;;;;5030066;28;21043;-53
2023/03/17 08:51:23;;;;;;;6.53;3.30;;;;;;;;;;5022171;28;20494;-54
2023/03/17 08:53:50;;;;;;;6.23;2.63;;;;;;;;;;5026044;28;20958;-54
2023/03/17 08:56:16;;;;;;;8.20;2.80;;;;;;;;;;5024583;28;20475;-54
2023/03/17 08:58:42;;;;;;;4.97;3.17;;;;;;;;;;5010468;28;21080;-53
2023/03/17 09:01:09;;;;;;;7.67;3.40;;;;;;;;;;5051854;28;20439;-54
2023/03/17 09:03:35;;;;;;;4.43;3.03;;;;;;;;;;5015006;28;20466;-53
2023/03/17 09:06:49;;;;;;;9.23;2.70;;;;;;;;;;5035549;28;20449;-54
2023/03/17 09:09:16;;;;;;;4.20;2.97;;;;;;;;;;5010529;28;20445;-53
2023/03/17 09:11:42;;;;;;;3.90;3.00;;;;;;;;;;5030026;28;20466;-54
2023/03/17 09:14:08;;;;;;;13.40;3.30;;;;;;;;;;5031639;28;20596;-52
2023/03/17 09:16:34;;;;;;;7.70;3.60;;;;;;;;;;5034868;28;20534;-53
2023/03/17 09:19:00;;;;;;;6.03;2.83;;;;;;;;;;5008882;28;20810;-53
2023/03/17 09:21:26;;;;;;;5.10;2.40;;;;;;;;;;5031156;28;20436;-53
2023/03/17 09:23:52;;;;;;;3.50;2.40;;;;;;;;;;5012907;28;20474;-53
2023/03/17 09:26:19;;;;;;;7.37;2.83;;;;;;;;;;5035195;28;20470;-53
2023/03/17 09:28:45;;;;;;;7.57;2.63;;;;;;;;;;5011736;28;20492;-54
2023/03/17 09:31:11;;;;;;;5.10;2.77;;;;;;;;;;5032689;28;20526;-53
2023/03/17 09:33:38;;;;;;;18.43;4.70;;;;;;;;;;5037618;28;20436;-54
2023/03/17 09:36:05;;;;;;;4.27;2.70;;;;;;;;;;5038730;28;20524;-54
2023/03/17 09:38:32;;;;;;;2.73;2.40;;;;;;;;;;4995569;28;20438;-53
2023/03/17 09:41:19;;;;;;;3.77;2.10;;;;;;;;;;5036496;28;20453;-54
2023/03/17 09:43:45;;;;;;;5.23;2.27;;;;;;;;;;5032577;28;20513;-54
2023/03/17 09:46:34;;;;;;;5.87;2.60;;;;;;;;;;5031575;28;20496;-55
2023/03/17 09:49:07;;;;;;;3.37;2.37;;;;;;;;;;5007948;28;21385;-55
2023/03/17 09:51:34;;;;;;;4.47;2.77;;;;;;;;;;5046528;28;20989;-53
2023/03/17 09:54:14;;;;;;;4.30;2.27;;;;;;;;;;5024927;28;22335;-54
2023/03/17 09:56:41;;;;;;;4.90;2.30;;;;;;;;;;5030443;28;20528;-54
2023/03/17 09:59:25;;;;;;;4.47;2.50;;;;;;;;;;5028801;28;21206;-55
2023/03/17 10:01:51;;;;;;;4.83;2.07;;;;;;;;;;5037859;28;20797;-55
2023/03/17 10:04:17;;;;;;;2.80;2.00;;;;;;;;;;5037483;28;20438;-55
2023/03/17 10:06:45;;;;;;;5.67;2.70;;;;;;;;;;5024261;28;21021;-54
2023/03/17 10:09:25;;;;;;;2.60;2.00;;;;;;;;;;5020873;28;20877;-55
2023/03/17 10:11:58;;;;;;;3.50;2.40;;;;;;;;;;5036285;28;20462;-56
2023/03/17 10:14:26;;;;;;;2.13;1.47;;;;;;;;;;5041344;28;20446;-56
2023/03/17 10:16:53;;;;;;;3.13;1.83;;;;;;;;;;5036169;28;20483;-54
2023/03/17 10:19:38;;;;;;;3.47;1.70;;;;;;;;;;5054620;28;20565;-54
2023/03/17 10:22:24;;;;;;;2.30;1.50;;;;;;;;;;5018771;28;20449;-53
2023/03/17 10:24:51;;;;;;;2.57;2.10;;;;;;;;;;5004185;28;22218;-53
2023/03/17 10:27:18;;;;;;;2.80;1.63;;;;;;;;;;5027047;28;20445;-54
2023/03/17 10:29:44;;;;;;;3.93;2.40;;;;;;;;;;5039792;28;20528;-54
2023/03/17 10:32:11;;;;;;;2.30;1.60;;;;;;;;;;5038560;28;20433;-53
2023/03/17 10:34:38;;;;;;;4.60;1.77;;;;;;;;;;5038118;28;20437;-55
2023/03/17 10:37:04;;;;;;;3.10;1.53;;;;;;;;;;5033082;28;20485;-55
2023/03/17 10:39:33;;;;;;;3.77;1.70;;;;;;;;;;5038781;28;20423;-56
2023/03/17 10:42:04;;;;;;;2.93;1.57;;;;;;;;;;5020535;28;20537;-54
2023/03/17 10:44:37;;;;;;;3.13;1.67;;;;;;;;;;5041286;28;20449;-52
2023/03/17 10:47:03;;;;;;;4.33;2.30;;;;;;;;;;5038968;28;20500;-53
2023/03/17 10:49:31;;;;;;;3.00;1.67;;;;;;;;;;5015181;28;20430;-53
2023/03/17 10:51:57;;;;;;;5.50;2.17;;;;;;;;;;5045154;28;20237;-54
2023/03/17 10:54:25;;;;;;;4.70;1.50;;;;;;;;;;5020229;28;20442;-55
2023/03/17 10:56:55;;;;;;;4.03;2.27;;;;;;;;;;5041450;28;20576;-55
2023/03/17 10:59:28;;;;;;;3.23;2.10;;;;;;;;;;5014341;28;20430;-55
2023/03/17 11:01:56;;;;;;;4.50;1.73;;;;;;;;;;5038158;28;20439;-55
2023/03/17 11:04:36;;;;;;;4.93;1.70;;;;;;;;;;5030582;28;20510;-54
2023/03/17 11:07:06;;;;;;;3.10;1.83;;;;;;;;;;5037479;28;20449;-56
2023/03/17 11:09:35;;;;;;;5.10;2.10;;;;;;;;;;5031097;28;20431;-56
2023/03/17 11:12:05;;;;;;;4.20;2.13;;;;;;;;;;5013367;28;20867;-55
2023/03/17 11:14:32;;;;;;;3.43;1.70;;;;;;;;;;5045161;28;20449;-55
2023/03/17 11:16:59;;;;;;;3.70;2.00;;;;;;;;;;5028098;28;20564;-55
2023/03/17 11:19:41;;;;;;;3.83;1.90;;;;;;;;;;5039326;28;20453;-55
2023/03/17 11:22:10;;;;;;;3.73;2.30;;;;;;;;;;5035107;28;20525;-56
2023/03/17 11:24:44;;;;;;;3.97;1.67;;;;;;;;;;5049182;28;20445;-54
2023/03/17 11:27:24;;;;;;;2.70;1.77;;;;;;;;;;5027522;28;20434;-55
2023/03/17 11:30:02;;;;;;;3.90;2.73;;;;;;;;;;5060972;28;20619;-55
2023/03/17 11:32:31;;;;;;;2.50;1.63;;;;;;;;;;5015437;28;20646;-55
2023/03/17 11:35:03;;;;;;;3.53;2.40;;;;;;;;;;5037214;28;20986;-55
2023/03/17 11:37:32;;;;;;;3.27;2.97;;;;;;;;;;5013451;28;20512;-55
2023/03/17 11:40:02;;;;;;;2.83;2.13;;;;;;;;;;5033567;28;20439;-56
2023/03/17 11:42:48;;;;;;;3.73;2.30;;;;;;;;;;5003876;28;20450;-55
2023/03/17 11:45:27;;;;;;;2.77;2.07;;;;;;;;;;5034080;28;20438;-52
2023/03/17 11:48:12;;;;;;;5.53;2.60;;;;;;;;;;5030262;28;20534;-54
2023/03/17 11:50:59;;;;;;;3.13;2.20;;;;;;;;;;5048752;28;20430;-55
2023/03/17 11:53:25;;;;;;;3.10;1.80;;;;;;;;;;5039371;28;20454;-55
2023/03/17 11:55:53;;;;;;;3.67;2.10;;;;;;;;;;5028865;28;20525;-55
2023/03/17 11:58:22;;;;;;;3.53;2.10;;;;;;;;;;5027265;28;20172;-53
2023/03/17 12:00:55;;;;;;;4.67;2.30;;;;;;;;;;5023328;28;20442;-57
2023/03/17 12:03:31;;;;;;;4.97;2.73;;;;;;;;;;5027945;28;20449;-54
2023/03/17 12:05:59;;;;;;;4.63;2.80;;;;;;;;;;5009255;28;20995;-55
2023/03/17 12:08:28;;;;;;;5.13;2.90;;;;;;;;;;5034800;28;20469;-55
2023/03/17 12:10:55;;;;;;;3.90;2.73;;;;;;;;;;5037826;28;20433;-56
2023/03/17 12:13:25;;;;;;;4.50;3.83;;;;;;;;;;5027964;28;20462;-55
2023/03/17 12:16:11;;;;;;;8.20;2.70;;;;;;;;;;5023091;28;20934;-56
2023/03/17 12:18:45;;;;;;;3.30;2.27;;;;;;;;;;5001832;28;20963;-55
2023/03/17 12:21:17;;;;;;;4.47;2.37;;;;;;;;;;5043389;28;20536;-55
2023/03/17 12:23:47;;;;;;;4.60;1.90;;;;;;;;;;5037991;28;20499;-54
2023/03/17 12:26:18;;;;;;;3.30;2.10;;;;;;;;;;5037566;28;21034;-54
2023/03/17 12:28:46;;;;;;;3.40;1.93;;;;;;;;;;5013389;28;20478;-55
2023/03/17 12:31:13;;;;;;;4.37;2.43;;;;;;;;;;5035773;28;21105;-54
2023/03/17 12:33:42;;;;;;;3.03;2.00;;;;;;;;;;5029959;28;20469;-54
2023/03/17 12:36:08;;;;;;;3.90;1.93;;;;;;;;;;5036046;28;20494;-55
2023/03/17 12:38:36;;;;;;;3.80;1.77;;;;;;;;;;5027396;28;20498;-55
2023/03/17 12:41:07;;;;;;;2.60;1.70;;;;;;;;;;5053025;28;20446;-55
2023/03/17 12:43:36;;;;;;;3.80;2.20;;;;;;;;;;5046988;28;20513;-55
2023/03/17 12:46:14;;;;;;;3.70;2.10;;;;;;;;;;5039044;28;20446;-55
2023/03/17 12:48:52;;;;;;;4.17;1.90;;;;;;;;;;5006842;28;20476;-55
2023/03/17 12:51:17;;;;;;;2.90;2.00;;;;;;;;;;5037377;28;20433;-54
2023/03/17 12:53:45;;;;;;;3.67;1.93;;;;;;;;;;4988122;28;22171;-54
2023/03/17 12:56:20;;;;;;;6.00;1.93;;;;;;;;;;5035574;28;20478;-54
2023/03/17 12:58:50;;;;;;;5.07;2.50;;;;;;;;;;5011717;28;20430;-54
2023/03/17 13:01:22;;;;;;;3.57;2.10;;;;;;;;;;5032795;28;20815;-54
2023/03/17 13:04:01;;;;;;;3.90;2.43;;;;;;;;;;5009038;28;20556;-53
2023/03/17 13:06:27;;;;;;;3.27;2.20;;;;;;;;;;5031886;28;20453;-54
2023/03/17 13:08:53;;;;;;;5.30;2.17;;;;;;;;;;5014034;28;20434;-55
2023/03/17 13:11:45;;;;;;;6.63;1.80;;;;;;;;;;5035699;28;20516;-54
2023/03/17 13:14:37;;;;;;;3.90;2.10;;;;;;;;;;5022687;28;20397;-55
2023/03/17 13:17:08;;;;;;;4.70;2.37;;;;;;;;;;5011548;28;22188;-55
2023/03/17 13:20:01;;;;;;;3.33;1.73;;;;;;;;;;5026320;28;20442;-54
2023/03/17 13:22:36;;;;;;;7.93;4.87;;;;;;;;;;5005959;28;20554;-55
2023/03/17 13:25:11;;;;;;;5.37;2.30;;;;;;;;;;5033696;28;20445;-53
2023/03/17 13:27:37;;;;;;;4.20;2.30;;;;;;;;;;5039022;28;20434;-57
2023/03/17 13:30:39;;;;;;;3.07;2.00;;;;;;;;;;5033700;28;20420;-56
2023/03/17 13:33:08;;;;;;;7.00;2.70;;;;;;;;;;4964879;28;20471;-54
2023/03/17 13:35:53;;;;;;;3.77;1.57;;;;;;;;;;5027996;28;20457;-55
2023/03/17 13:38:19;;;;;;;3.20;1.80;;;;;;;;;;5015993;28;20442;-54
2023/03/17 13:40:46;;;;;;;4.60;2.03;;;;;;;;;;5032953;28;21080;-55
2023/03/17 13:43:17;;;;;;;2.50;1.50;;;;;;;;;;5048705;28;20854;-55
2023/03/17 13:45:44;;;;;;;4.10;2.20;;;;;;;;;;5037611;28;20438;-55
2023/03/17 13:48:29;;;;;;;3.60;1.73;;;;;;;;;;5031654;28;20437;-55
2023/03/17 13:51:17;;;;;;;2.70;1.80;;;;;;;;;;5037641;28;20487;-55
2023/03/17 13:53:49;;;;;;;4.47;1.80;;;;;;;;;;5003984;28;20481;-54
2023/03/17 13:56:35;;;;;;;4.33;1.90;;;;;;;;;;5038460;28;20546;-55
2023/03/17 13:59:01;;;;;;;3.27;1.47;;;;;;;;;;5015172;28;21060;-55
2023/03/17 14:01:47;;;;;;;3.23;1.90;;;;;;;;;;5032363;28;20526;-53
2023/03/17 14:04:18;;;;;;;5.03;1.80;;;;;;;;;;5026482;28;21380;-54
2023/03/17 14:06:44;;;;;;;4.33;1.60;;;;;;;;;;5027393;28;20948;-55
2023/03/17 14:09:25;;;;;;;2.37;1.50;;;;;;;;;;5016191;28;20451;-55
2023/03/17 14:11:51;;;;;;;3.90;1.70;;;;;;;;;;5027354;28;20434;-53
2023/03/17 14:14:20;;;;;;;3.30;1.97;;;;;;;;;;5022079;28;21020;-55
2023/03/17 14:16:55;;;;;;;3.03;2.20;;;;;;;;;;5033176;28;20307;-55
2023/03/17 14:19:21;;;;;;;3.97;2.03;;;;;;;;;;5026142;28;20460;-56
2023/03/17 14:21:47;;;;;;;4.83;2.73;;;;;;;;;;5032470;28;20517;-56
2023/03/17 14:24:24;;;;;;;9.50;6.40;;;;;;;;;;5030397;28;20939;-55
2023/03/17 14:26:52;;;;;;;12.40;6.90;;;;;;;;;;5029082;28;21178;-54
2023/03/17 14:29:19;;;;;;;5.83;2.00;;;;;;;;;;4984364;28;20450;-55
2023/03/17 14:31:51;;;;;;;5.03;2.30;;;;;;;;;;5036348;28;20687;-55
2023/03/17 14:34:17;;;;;;;3.00;1.27;;;;;;;;;;5017634;28;21153;-54
2023/03/17 14:36:43;;;;;;;2.90;2.10;;;;;;;;;;5041597;28;21609;-54
2023/03/17 14:39:18;;;;;;;2.50;1.50;;;;;;;;;;4997968;28;21042;-55
2023/03/17 14:41:44;;;;;;;3.20;2.20;;;;;;;;;;5033363;28;20484;-58
2023/03/17 14:44:10;;;;;;;3.13;1.30;;;;;;;;;;5008654;28;20447;-55
2023/03/17 14:46:37;;;;;;;5.50;1.50;;;;;;;;;;5033483;28;20442;-56
2023/03/17 14:49:16;;;;;;;3.97;1.80;;;;;;;;;;5028179;28;20422;-55
2023/03/17 14:51:42;;;;;;;5.57;2.27;;;;;;;;;;5023082;28;20449;-54
2023/03/17 14:54:15;;;;;;;3.40;1.70;;;;;;;;;;5031376;28;20441;-55